createdAt,value
2022-11-27T00:02:04.288Z,101276.94
2022-11-27T00:04:48.237Z,101279.47
2022-11-27T00:07:33.570Z,101285.59
2022-11-27T00:10:17.874Z,101284.88
2022-11-27T00:13:01.780Z,101282.16
2022-11-27T00:15:46.032Z,101247.31
2022-11-27T00:18:30.160Z,101264.41
2022-11-27T00:21:16.364Z,101274.13
2022-11-27T00:24:03.817Z,101282.34
2022-11-27T00:26:49.866Z,101287.69
2022-11-27T00:29:33.691Z,101291.16
2022-11-27T00:32:17.504Z,101286.88
2022-11-27T00:35:01.203Z,101290.19
2022-11-27T00:37:44.940Z,101300.09
2022-11-27T00:40:30.057Z,101291.28
2022-11-27T00:43:13.838Z,101295.19
2022-11-27T00:45:57.608Z,101294.06
2022-11-27T00:48:41.410Z,101294.34
2022-11-27T00:51:25.836Z,101289.34
2022-11-27T00:54:09.862Z,101299.91
2022-11-27T00:56:55.170Z,101308.22
2022-11-27T00:59:39.169Z,101257.00
2022-11-27T01:02:23.186Z,101303.28
2022-11-27T01:05:08.006Z,101301.22
2022-11-27T01:07:51.754Z,101277.75
2022-11-27T01:10:35.573Z,101279.81
2022-11-27T01:13:21.030Z,101287.16
2022-11-27T01:16:07.406Z,101296.66
2022-11-27T01:18:52.375Z,101289.19
2022-11-27T01:21:36.667Z,101296.84
2022-11-27T01:24:20.387Z,101254.28
2022-11-27T01:27:04.277Z,101298.97
2022-11-27T01:29:49.507Z,101293.50
2022-11-27T01:32:33.417Z,101247.94
2022-11-27T01:35:17.505Z,101264.81
2022-11-27T01:38:01.530Z,101262.13
2022-11-27T01:40:45.575Z,101258.53
2022-11-27T01:43:42.085Z,101287.16
2022-11-27T01:46:40.993Z,101258.03
2022-11-27T01:49:30.953Z,101287.66
2022-11-27T01:52:19.941Z,101254.75
2022-11-27T01:55:09.056Z,101298.16
2022-11-27T01:57:56.370Z,101250.25
2022-11-27T02:00:40.797Z,101284.50
2022-11-27T02:03:26.297Z,101284.50
2022-11-27T02:06:13.345Z,101292.88
2022-11-27T02:08:58.037Z,101289.00
2022-11-27T02:11:50.571Z,101287.91
2022-11-27T02:15:04.057Z,101297.09
2022-11-27T02:17:53.417Z,101296.03
2022-11-27T02:20:48.870Z,101267.91
2022-11-27T02:24:23.200Z,101301.56
2022-11-27T02:27:23.475Z,101313.81
2022-11-27T02:30:09.765Z,101311.72
2022-11-27T02:32:58.303Z,101309.22
2022-11-27T02:35:49.382Z,101317.34
2022-11-27T02:38:39.482Z,101311.19
2022-11-27T02:41:29.526Z,101311.19
2022-11-27T02:44:14.770Z,101309.84
2022-11-27T02:47:00.749Z,101263.34
2022-11-27T02:49:46.374Z,101300.44
2022-11-27T02:52:32.529Z,101269.81
2022-11-27T02:55:21.979Z,101302.19
2022-11-27T02:58:10.534Z,101295.34
2022-11-27T03:00:56.013Z,101309.47
2022-11-27T03:03:45.826Z,101295.56
2022-11-27T03:06:35.947Z,101269.38
2022-11-27T03:09:25.629Z,101266.84
2022-11-27T03:12:13.133Z,101303.34
2022-11-27T03:14:57.189Z,101301.53
2022-11-27T03:17:53.049Z,101247.41
2022-11-27T03:20:42.271Z,101258.56
2022-11-27T03:23:26.243Z,101300.94
2022-11-27T03:26:10.293Z,101255.72
2022-11-27T03:28:56.607Z,101292.78
2022-11-27T03:31:41.310Z,101289.44
2022-11-27T03:34:25.593Z,101289.41
2022-11-27T03:37:11.408Z,101226.91
2022-11-27T03:39:56.273Z,101256.03
2022-11-27T03:42:52.965Z,101229.69
2022-11-27T03:45:44.986Z,101237.63
2022-11-27T03:48:36.715Z,101281.69
2022-11-27T03:51:26.654Z,101276.00
2022-11-27T03:54:22.238Z,101233.69
2022-11-27T03:57:14.464Z,101244.00
2022-11-27T04:00:03.818Z,101231.31
2022-11-27T04:02:52.787Z,101261.34
2022-11-27T04:05:36.859Z,101231.22
2022-11-27T04:08:21.060Z,101261.50
2022-11-27T04:11:06.608Z,101271.91
2022-11-27T04:13:52.192Z,101286.84
2022-11-27T04:16:36.037Z,101269.63
2022-11-27T04:19:19.950Z,101288.59
2022-11-27T04:22:03.726Z,101277.06
2022-11-27T04:24:47.513Z,101280.69
2022-11-27T04:27:32.665Z,101285.81
2022-11-27T04:30:16.528Z,101289.53
2022-11-27T04:33:00.226Z,101282.53
2022-11-27T04:35:44.404Z,101287.03
2022-11-27T04:38:28.227Z,101297.44
2022-11-27T04:41:11.964Z,101287.03
2022-11-27T04:43:57.070Z,101283.41
2022-11-27T04:46:40.833Z,101295.69
2022-11-27T04:49:24.718Z,101298.34
2022-11-27T04:52:08.708Z,101299.09
2022-11-27T04:54:58.352Z,101297.50
2022-11-27T04:57:43.708Z,101297.72
2022-11-27T05:00:28.984Z,101282.72
2022-11-27T05:03:12.869Z,101298.47
2022-11-27T05:05:57.607Z,101294.84
2022-11-27T05:08:41.328Z,101301.94
2022-11-27T05:11:25.033Z,101297.81
2022-11-27T05:14:18.252Z,101310.84
2022-11-27T05:17:03.811Z,101262.16
2022-11-27T05:19:47.906Z,101273.59
2022-11-27T05:22:32.282Z,101260.34
2022-11-27T05:25:16.518Z,101254.44
2022-11-27T05:28:00.547Z,101284.97
2022-11-27T05:30:44.473Z,101264.16
2022-11-27T05:33:29.849Z,101313.84
2022-11-27T05:36:13.975Z,101279.81
2022-11-27T05:38:57.947Z,101272.56
2022-11-27T05:41:43.698Z,101282.56
2022-11-27T05:44:28.380Z,101318.81
2022-11-27T05:47:12.355Z,101330.84
2022-11-27T05:49:57.741Z,101323.13
2022-11-27T05:52:41.590Z,101316.53
2022-11-27T05:55:25.657Z,101281.81
2022-11-27T05:58:09.616Z,101309.56
2022-11-27T06:00:54.021Z,101312.22
2022-11-27T06:03:39.188Z,101276.03
2022-11-27T06:06:24.680Z,101249.75
2022-11-27T06:09:12.742Z,101306.22
2022-11-27T06:11:57.426Z,101262.00
2022-11-27T06:14:41.640Z,101298.66
2022-11-27T06:17:26.196Z,101312.88
2022-11-27T06:20:10.664Z,101313.88
2022-11-27T06:22:57.478Z,101280.84
2022-11-27T06:25:41.319Z,101317.53
2022-11-27T06:28:25.086Z,101288.00
2022-11-27T06:31:15.998Z,101324.53
2022-11-27T06:34:02.061Z,101313.22
2022-11-27T06:36:46.535Z,101311.34
2022-11-27T06:39:31.766Z,101314.03
2022-11-27T06:42:15.663Z,101304.09
2022-11-27T06:44:59.529Z,101313.50
2022-11-27T06:47:43.233Z,101311.13
2022-11-27T06:50:27.214Z,101317.03
2022-11-27T06:53:10.889Z,101331.19
2022-11-27T06:55:55.958Z,101325.84
2022-11-27T06:58:40.434Z,101339.81
2022-11-27T07:01:25.925Z,101347.63
2022-11-27T07:04:11.900Z,101324.03
2022-11-27T07:06:56.042Z,101324.94
2022-11-27T07:09:39.788Z,101321.31
2022-11-27T07:12:24.872Z,101323.53
2022-11-27T07:15:09.683Z,101329.78
2022-11-27T07:17:53.605Z,101315.50
2022-11-27T07:20:37.382Z,101292.31
2022-11-27T07:23:21.235Z,101292.41
2022-11-27T07:26:08.047Z,101279.16
2022-11-27T07:28:53.453Z,101318.84
2022-11-27T07:31:37.235Z,101317.69
2022-11-27T07:34:21.881Z,101293.50
2022-11-27T07:37:05.894Z,101311.53
2022-11-27T07:40:04.733Z,101312.94
2022-11-27T07:42:48.536Z,101319.63
2022-11-27T07:45:35.753Z,101324.53
2022-11-27T07:48:19.563Z,101323.19
2022-11-27T07:51:03.526Z,101328.91
2022-11-27T07:53:48.682Z,101332.38
2022-11-27T07:56:32.647Z,101284.78
2022-11-27T07:59:16.572Z,101259.56
2022-11-27T08:02:01.864Z,101304.19
2022-11-27T08:04:45.740Z,101341.22
2022-11-27T08:07:30.404Z,101338.03
2022-11-27T08:10:14.350Z,101336.88
2022-11-27T08:12:58.765Z,101339.38
2022-11-27T08:15:42.499Z,101339.63
2022-11-27T08:18:27.774Z,101334.81
2022-11-27T08:21:11.520Z,101330.53
2022-11-27T08:23:55.397Z,101335.72
2022-11-27T08:26:39.240Z,101343.00
2022-11-27T08:29:23.331Z,101300.78
2022-11-27T08:32:07.856Z,101304.75
2022-11-27T08:34:53.377Z,101299.31
2022-11-27T08:37:37.595Z,101349.25
2022-11-27T08:40:21.485Z,101347.31
2022-11-27T08:43:05.480Z,101299.81
2022-11-27T08:45:49.703Z,101342.53
2022-11-27T08:48:33.602Z,101299.34
2022-11-27T08:51:19.154Z,101330.09
2022-11-27T08:54:03.692Z,101287.56
2022-11-27T08:56:47.645Z,101301.97
2022-11-27T08:59:31.901Z,101305.16
2022-11-27T09:02:15.944Z,101302.75
2022-11-27T09:04:59.973Z,101277.06
2022-11-27T09:07:45.483Z,101272.91
2022-11-27T09:10:29.458Z,101278.44
2022-11-27T09:13:13.513Z,101261.75
2022-11-27T09:15:58.417Z,101308.09
2022-11-27T09:18:44.725Z,101304.53
2022-11-27T09:21:31.495Z,101299.94
2022-11-27T09:24:16.626Z,101298.53
2022-11-27T09:27:00.375Z,101293.03
2022-11-27T09:29:44.080Z,101299.13
2022-11-27T09:32:27.879Z,101305.28
2022-11-27T09:35:11.784Z,101294.91
2022-11-27T09:37:55.662Z,101286.63
2022-11-27T09:40:45.204Z,101290.44
2022-11-27T09:43:31.737Z,101287.81
2022-11-27T09:46:25.968Z,101257.91
2022-11-27T09:49:14.973Z,101262.91
2022-11-27T09:52:03.561Z,101260.25
2022-11-27T09:54:55.022Z,101260.66
2022-11-27T09:57:44.014Z,101260.22
2022-11-27T10:00:28.298Z,101179.34
2022-11-27T10:03:15.773Z,101268.81
2022-11-27T10:06:10.125Z,101256.41
2022-11-27T10:09:07.502Z,101247.09
2022-11-27T10:11:58.051Z,101260.31
2022-11-27T10:14:56.120Z,101213.34
2022-11-27T10:17:43.325Z,101244.78
2022-11-27T10:20:33.304Z,101234.91
2022-11-27T10:23:25.778Z,101256.84
2022-11-27T10:26:17.054Z,101240.72
2022-11-27T10:29:06.047Z,101227.69
2022-11-27T10:31:57.403Z,101231.63
2022-11-27T10:34:44.720Z,101237.59
2022-11-27T10:37:31.917Z,101233.28
2022-11-27T10:40:23.900Z,101197.31
2022-11-27T10:43:13.766Z,101221.31
2022-11-27T10:46:01.704Z,101220.16
2022-11-27T10:48:46.895Z,101225.19
2022-11-27T10:51:33.893Z,101227.34
2022-11-27T10:54:25.019Z,101215.78
2022-11-27T10:57:39.138Z,101211.00
2022-11-27T11:00:25.180Z,101178.50
2022-11-27T11:03:18.931Z,101192.78
2022-11-27T11:06:23.209Z,101208.03
2022-11-27T11:09:14.260Z,101174.38
2022-11-27T11:12:08.772Z,101212.59
2022-11-27T11:14:53.982Z,101162.75
2022-11-27T11:17:38.523Z,101196.00
2022-11-27T11:20:24.681Z,101201.75
2022-11-27T11:23:22.241Z,101165.84
2022-11-27T11:26:14.580Z,101188.50
2022-11-27T11:29:00.625Z,101171.41
2022-11-27T11:31:44.925Z,101173.28
2022-11-27T11:34:30.671Z,101163.44
2022-11-27T11:37:23.831Z,101191.19
2022-11-27T11:40:24.830Z,101189.50
2022-11-27T11:43:25.528Z,101161.47
2022-11-27T11:46:19.118Z,101156.13
2022-11-27T11:49:07.383Z,101154.66
2022-11-27T11:52:24.639Z,101169.72
2022-11-27T11:55:17.837Z,101167.72
2022-11-27T11:58:34.917Z,101194.81
2022-11-27T12:01:33.337Z,101175.47
2022-11-27T12:04:43.029Z,101146.00
2022-11-27T12:07:41.422Z,101153.25
2022-11-27T12:10:32.558Z,101133.44
2022-11-27T12:13:33.188Z,101188.72
2022-11-27T12:16:24.497Z,101173.88
2022-11-27T12:19:31.539Z,101138.50
2022-11-27T12:22:28.501Z,101152.22
2022-11-27T12:25:27.575Z,101142.03
2022-11-27T12:28:30.206Z,101106.78
2022-11-27T12:31:24.477Z,101143.91
2022-11-27T12:34:18.846Z,101176.50
2022-11-27T12:37:19.721Z,101182.94
2022-11-27T12:40:27.495Z,101167.50
2022-11-27T12:43:24.541Z,101178.94
2022-11-27T12:46:15.041Z,101134.41
2022-11-27T12:49:04.121Z,101178.63
2022-11-27T12:51:52.257Z,101170.41
2022-11-27T12:54:42.833Z,101159.94
2022-11-27T12:57:35.265Z,101169.75
2022-11-27T13:00:23.148Z,101176.53
2022-11-27T13:03:14.141Z,101134.59
2022-11-27T13:06:05.762Z,101137.00
2022-11-27T13:08:58.443Z,101166.38
2022-11-27T13:11:43.163Z,101123.56
2022-11-27T13:14:29.535Z,101166.16
2022-11-27T13:17:18.155Z,101169.94
2022-11-27T13:20:04.253Z,101160.34
2022-11-27T13:22:49.493Z,101173.66
2022-11-27T13:25:37.565Z,101145.66
2022-11-27T13:28:32.131Z,101136.22
2022-11-27T13:31:23.279Z,101162.31
2022-11-27T13:34:12.966Z,101134.13
2022-11-27T13:37:00.094Z,101137.19
2022-11-27T13:39:44.257Z,101133.19
2022-11-27T13:42:28.807Z,101169.50
2022-11-27T13:45:22.334Z,101175.69
2022-11-27T13:48:22.980Z,101154.34
2022-11-27T13:51:10.732Z,101164.25
2022-11-27T13:53:54.793Z,101160.91
2022-11-27T13:56:39.120Z,101167.09
2022-11-27T13:59:24.878Z,101173.28
2022-11-27T14:02:09.410Z,101168.66
2022-11-27T14:04:56.606Z,101177.19
2022-11-27T14:07:45.257Z,101175.41
2022-11-27T14:10:31.253Z,101178.19
2022-11-27T14:13:15.189Z,101178.78
2022-11-27T14:16:02.183Z,101173.03
2022-11-27T14:18:52.193Z,101179.56
2022-11-27T14:21:42.868Z,101186.09
2022-11-27T14:24:37.023Z,101176.22
2022-11-27T14:27:23.039Z,101182.06
2022-11-27T14:30:22.838Z,101176.78
2022-11-27T14:33:17.205Z,101174.75
2022-11-27T14:36:02.747Z,101175.31
2022-11-27T14:38:48.957Z,101179.47
2022-11-27T14:41:34.221Z,101181.69
2022-11-27T14:44:19.265Z,101172.69
2022-11-27T14:47:06.178Z,101149.91
2022-11-27T14:49:56.183Z,101172.63
2022-11-27T14:52:40.567Z,101172.91
2022-11-27T14:55:27.880Z,101165.94
2022-11-27T14:58:20.261Z,101169.63
2022-11-27T15:01:06.917Z,101138.84
2022-11-27T15:03:56.978Z,101167.09
2022-11-27T15:06:43.095Z,101166.75
2022-11-27T15:09:32.648Z,101166.69
2022-11-27T15:12:19.976Z,101157.19
2022-11-27T15:15:09.017Z,101174.25
2022-11-27T15:17:55.624Z,101171.97
2022-11-27T15:20:42.232Z,101169.06
2022-11-27T15:23:29.127Z,101173.97
2022-11-27T15:26:18.824Z,101172.63
2022-11-27T15:29:06.449Z,101175.06
2022-11-27T15:31:54.994Z,101172.13
2022-11-27T15:34:40.889Z,101183.78
2022-11-27T15:37:32.490Z,101180.91
2022-11-27T15:40:29.250Z,101142.13
2022-11-27T15:43:16.349Z,101186.34
2022-11-27T15:46:03.025Z,101172.72
2022-11-27T15:48:53.238Z,101176.31
2022-11-27T15:51:38.822Z,101175.22
2022-11-27T15:54:24.838Z,101137.31
2022-11-27T15:57:10.490Z,101174.72
2022-11-27T15:59:56.243Z,101135.44
2022-11-27T16:02:41.419Z,101175.06
2022-11-27T16:05:32.293Z,101169.53
2022-11-27T16:08:18.449Z,101014.44
2022-11-27T16:11:04.989Z,101098.47
2022-11-27T16:13:50.602Z,101163.88
2022-11-27T16:16:36.600Z,101164.78
2022-11-27T16:19:22.614Z,101163.22
2022-11-27T16:22:13.656Z,101161.91
2022-11-27T16:25:01.825Z,101158.47
2022-11-27T16:27:49.112Z,101163.75
2022-11-27T16:30:34.983Z,101166.25
2022-11-27T16:33:22.489Z,101163.00
2022-11-27T16:36:09.281Z,101150.41
2022-11-27T16:38:57.827Z,101151.56
2022-11-27T16:41:46.068Z,101171.28
2022-11-27T16:44:32.817Z,101178.34
2022-11-27T16:47:21.799Z,101173.25
2022-11-27T16:50:09.048Z,101183.44
2022-11-27T16:52:56.871Z,101188.66
2022-11-27T16:55:51.631Z,101178.88
2022-11-27T16:58:42.971Z,101182.81
2022-11-27T17:01:32.988Z,101182.84
2022-11-27T17:04:20.747Z,101174.06
2022-11-27T17:07:09.683Z,101169.88
2022-11-27T17:09:56.047Z,101182.72
2022-11-27T17:12:44.464Z,101180.72
2022-11-27T17:15:32.340Z,101181.25
2022-11-27T17:18:19.697Z,101170.63
2022-11-27T17:21:10.912Z,101160.25
2022-11-27T17:23:59.632Z,101181.41
2022-11-27T17:26:46.510Z,101181.22
2022-11-27T17:29:36.453Z,101160.84
2022-11-27T17:32:25.733Z,101178.97
2022-11-27T17:35:12.353Z,101174.81
2022-11-27T17:37:58.218Z,101171.13
2022-11-27T17:40:46.761Z,101169.78
2022-11-27T17:43:35.561Z,101147.22
2022-11-27T17:46:24.602Z,101165.91
2022-11-27T17:49:12.612Z,101163.56
2022-11-27T17:52:04.869Z,101159.34
2022-11-27T17:54:58.680Z,101165.69
2022-11-27T17:57:44.741Z,101139.69
2022-11-27T18:00:33.882Z,101160.97
2022-11-27T18:03:21.026Z,101154.19
2022-11-27T18:06:07.968Z,101099.56
2022-11-27T18:08:56.891Z,101150.44
2022-11-27T18:11:42.933Z,101152.97
2022-11-27T18:14:29.869Z,101155.81
2022-11-27T18:17:18.442Z,101162.31
2022-11-27T18:20:06.081Z,101158.00
2022-11-27T18:22:52.599Z,101161.28
2022-11-27T18:25:47.587Z,101161.81
2022-11-27T18:28:34.543Z,101167.03
2022-11-27T18:31:21.896Z,101133.56
2022-11-27T18:34:07.545Z,101172.03
2022-11-27T18:36:58.333Z,101166.09
2022-11-27T18:39:46.489Z,101165.00
2022-11-27T18:42:35.129Z,101134.66
2022-11-27T18:45:33.412Z,101170.94
2022-11-27T18:48:21.398Z,101175.59
2022-11-27T18:51:11.370Z,101171.16
2022-11-27T18:54:10.698Z,101180.69
2022-11-27T18:57:00.852Z,101175.16
2022-11-27T18:59:49.305Z,101172.22
2022-11-27T19:02:36.335Z,101168.56
2022-11-27T19:05:22.183Z,101179.16
2022-11-27T19:08:11.241Z,101168.25
2022-11-27T19:11:02.826Z,101175.03
2022-11-27T19:13:49.524Z,101160.13
2022-11-27T19:16:40.373Z,101174.28
2022-11-27T19:19:53.893Z,101182.16
2022-11-27T19:22:33.312Z,101180.44
2022-11-27T19:25:18.984Z,101188.00
2022-11-27T19:28:06.266Z,101206.44
2022-11-27T19:30:53.913Z,101198.88
2022-11-27T19:33:41.005Z,101076.22
2022-11-27T19:36:27.370Z,101193.41
2022-11-27T19:39:19.307Z,101190.41
2022-11-27T19:42:08.919Z,101186.66
2022-11-27T19:44:57.194Z,101170.41
2022-11-27T19:47:45.874Z,101179.06
2022-11-27T19:50:30.385Z,101180.91
2022-11-27T19:53:16.832Z,101169.28
2022-11-27T19:56:02.607Z,101182.78
2022-11-27T19:58:48.225Z,101183.69
2022-11-27T20:01:35.478Z,101178.00
2022-11-27T20:04:24.518Z,101171.41
2022-11-27T20:07:11.465Z,101133.59
2022-11-27T20:09:58.510Z,101180.84
2022-11-27T20:12:44.503Z,101178.19
2022-11-27T20:15:32.150Z,101125.22
2022-11-27T20:18:19.441Z,101173.03
2022-11-27T20:21:10.986Z,101167.59
2022-11-27T20:23:58.160Z,101166.91
2022-11-27T20:26:45.528Z,101123.75
2022-11-27T20:29:35.849Z,101122.09
2022-11-27T20:32:22.042Z,101122.75
2022-11-27T20:35:09.904Z,101158.31
2022-11-27T20:37:58.624Z,101119.97
2022-11-27T20:40:44.448Z,101129.19
2022-11-27T20:43:31.599Z,101119.97
2022-11-27T20:46:21.246Z,101165.59
2022-11-27T20:49:07.704Z,101131.75
2022-11-27T20:51:57.769Z,101161.06
2022-11-27T20:54:44.694Z,101171.75
2022-11-27T20:57:31.162Z,101125.63
2022-11-27T21:00:17.614Z,101106.63
2022-11-27T21:03:02.625Z,101113.72
2022-11-27T21:05:49.342Z,101152.22
2022-11-27T21:08:36.578Z,101148.50
2022-11-27T21:11:26.235Z,101117.75
2022-11-27T21:14:13.672Z,101127.28
2022-11-27T21:17:04.525Z,101157.66
2022-11-27T21:19:52.530Z,101120.72
2022-11-27T21:22:38.516Z,101153.34
2022-11-27T21:25:27.546Z,101160.66
2022-11-27T21:28:13.299Z,101115.56
2022-11-27T21:31:06.815Z,101128.03
2022-11-27T21:33:53.807Z,101119.50
2022-11-27T21:36:40.466Z,101130.13
2022-11-27T21:39:26.824Z,101128.69
2022-11-27T21:42:13.522Z,101151.31
2022-11-27T21:44:58.773Z,101136.31
2022-11-27T21:47:43.935Z,101160.63
2022-11-27T21:50:28.510Z,101119.59
2022-11-27T21:53:13.676Z,101135.63
2022-11-27T21:55:59.141Z,101063.56
2022-11-27T21:58:45.966Z,101118.28
2022-11-27T22:01:31.039Z,101098.13
2022-11-27T22:04:16.055Z,101152.84
2022-11-27T22:07:01.109Z,101122.91
2022-11-27T22:09:45.574Z,101112.00
2022-11-27T22:12:30.274Z,101116.63
2022-11-27T22:15:16.509Z,101113.00
2022-11-27T22:18:01.538Z,101144.94
2022-11-27T22:20:46.685Z,101102.84
2022-11-27T22:23:31.091Z,101100.41
2022-11-27T22:26:17.320Z,101133.44
2022-11-27T22:29:01.293Z,101098.41
2022-11-27T22:31:46.951Z,101103.16
2022-11-27T22:34:31.954Z,101137.56
2022-11-27T22:37:16.435Z,101088.97
2022-11-27T22:40:00.450Z,101080.56
2022-11-27T22:42:44.414Z,101057.03
2022-11-27T22:45:28.548Z,100940.78
2022-11-27T22:48:14.172Z,101107.31
2022-11-27T22:50:58.235Z,101104.50
2022-11-27T22:53:42.311Z,101106.00
2022-11-27T22:56:26.799Z,101063.91
2022-11-27T22:59:31.709Z,101094.78
2022-11-27T23:02:16.191Z,101069.56
2022-11-27T23:05:01.961Z,101065.34
2022-11-27T23:07:47.000Z,101103.44
2022-11-27T23:10:30.979Z,101070.75
2022-11-27T23:13:15.072Z,101092.06
2022-11-27T23:15:59.087Z,101099.91
2022-11-27T23:18:42.989Z,101101.56
2022-11-27T23:21:28.214Z,101089.69
2022-11-27T23:24:15.366Z,101094.03
2022-11-27T23:26:59.327Z,101108.59
2022-11-27T23:29:43.077Z,101096.22
2022-11-27T23:32:26.927Z,101100.56
2022-11-27T23:35:11.501Z,101106.69
2022-11-27T23:37:56.802Z,101112.84
2022-11-27T23:40:40.618Z,101106.50
2022-11-27T23:43:24.469Z,101097.25
2022-11-27T23:46:09.956Z,101097.78
2022-11-27T23:48:55.691Z,101086.16
2022-11-27T23:51:39.618Z,101089.50
2022-11-27T23:54:24.852Z,101071.09
2022-11-27T23:57:08.592Z,101073.19
2022-11-27T23:59:52.515Z,101065.47
